This is the latest recevied weather packets stored in our database for station/object OE5HCE. If no packets are shown the sender has not sent any weather packets the latest 10 day(s).
| Time | Temp. | Humidity | Pressure | Rain* | Wind** | Luminosity | Snow |
|---|---|---|---|---|---|---|---|
| 1777500974 | 6.67° C | 40% | 1029.1 hPa | 0 mm | - | 0 W/m² | - |
| 1777500052 | 7.22° C | 39% | 1028.9 hPa | 0 mm | - | 0 W/m² | - |
| 1777499153 | 7.22° C | 38% | 1028.8 hPa | 0 mm | - | 0 W/m² | - |
| 1777498249 | 7.78° C | 39% | 1028.4 hPa | 0 mm | - | 0 W/m² | - |
| 1777497342 | 8.33° C | 40% | 1028 hPa | 0 mm | - | 0 W/m² | - |
| 1777496444 | 8.89° C | 45% | 1027.8 hPa | 0 mm | - | 0 W/m² | - |
| 1777495537 | 8.89° C | 47% | 1027.4 hPa | 0 mm | - | 0 W/m² | - |
| 1777494636 | 9.44° C | 48% | 1027.1 hPa | 0 mm | - | 0 W/m² | - |
| 1777493732 | 10° C | 49% | 1026.8 hPa | 0 mm | - | 0 W/m² | - |
| 1777492846 | 10° C | 49% | 1026.6 hPa | 0 mm | - | 0 W/m² | - |
| 1777491935 | 10.56° C | 48% | 1026.1 hPa | 0 mm | - | 0 W/m² | - |
| 1777491030 | 10.56° C | 45% | 1025.8 hPa | 0 mm | - | 0 W/m² | - |
| 1777490129 | 11.11° C | 43% | 1025.2 hPa | 0 mm | - | 0 W/m² | - |
| 1777489220 | 11.67° C | 42% | 1024.9 hPa | 0 mm | - | 0 W/m² | - |
| 1777488318 | 12.22° C | 41% | 1024.6 hPa | 0 mm | - | 0 W/m² | - |
| 1777487416 | 12.78° C | 39% | 1024.2 hPa | 0 mm | - | 0 W/m² | - |
| 1777486539 | 13.33° C | 38% | 1023.9 hPa | 0 mm | - | 5 W/m² | - |
| 1777485612 | 13.89° C | 37% | 1023.6 hPa | 0 mm | - | 11 W/m² | - |
| 1777484719 | 14.44° C | 37% | 1023.5 hPa | 0 mm | - | 19 W/m² | - |
| 1777483819 | 15° C | 34% | 1023.3 hPa | 0 mm | - | 40 W/m² | - |
| 1777482909 | 15.56° C | 34% | 1023.1 hPa | 0 mm | - | 74 W/m² | - |
| 1777482010 | 16.11° C | 32% | 1022.9 hPa | 0 mm | - | 113 W/m² | - |
| 1777481109 | 17.22° C | 32% | 1022.8 hPa | 0 mm | - | 169 W/m² | - |
| 1777480207 | 17.22° C | 31% | 1022.8 hPa | 0 mm | - | 216 W/m² | - |
| 1777479307 | 17.22° C | 30% | 1022.7 hPa | 0 mm | - | 258 W/m² | - |
* Rain latest hour (hover to see other rain measurements)
** Current wind speed in m/s (hover to see current wind gust speed)